sensor_id;sensor_type;location;lat;lon;timestamp;noise_LAeq;noise_LA_min;noise_LA_max;noise_LA01;noise_LA95
60872;Laerm;46714;50.118;14.462;2024-02-21T00:00:37;67.60;59.13;74.33;;
60872;Laerm;46714;50.118;14.462;2024-02-21T00:03:04;67.05;48.84;76.40;;
60872;Laerm;46714;50.118;14.462;2024-02-21T00:05:30;68.42;57.58;75.18;;
60872;Laerm;46714;50.118;14.462;2024-02-21T00:07:55;67.57;48.08;76.10;;
60872;Laerm;46714;50.118;14.462;2024-02-21T00:10:21;68.02;55.04;78.88;;
60872;Laerm;46714;50.118;14.462;2024-02-21T00:12:47;66.07;53.56;75.40;;
60872;Laerm;46714;50.118;14.462;2024-02-21T00:15:12;64.40;45.33;75.41;;
60872;Laerm;46714;50.118;14.462;2024-02-21T00:17:38;67.14;43.24;77.78;;
60872;Laerm;46714;50.118;14.462;2024-02-21T00:20:03;65.75;50.00;75.91;;
60872;Laerm;46714;50.118;14.462;2024-02-21T00:22:29;65.78;49.25;74.65;;
60872;Laerm;46714;50.118;14.462;2024-02-21T00:24:56;64.21;44.03;74.48;;
60872;Laerm;46714;50.118;14.462;2024-02-21T00:27:23;66.74;48.98;74.34;;
60872;Laerm;46714;50.118;14.462;2024-02-21T00:29:48;64.50;51.51;72.78;;
60872;Laerm;46714;50.118;14.462;2024-02-21T00:32:14;64.42;45.20;73.46;;
60872;Laerm;46714;50.118;14.462;2024-02-21T00:34:39;64.73;42.47;76.88;;
60872;Laerm;46714;50.118;14.462;2024-02-21T00:37:05;66.48;50.23;73.33;;
60872;Laerm;46714;50.118;14.462;2024-02-21T00:39:31;62.63;42.65;73.08;;
60872;Laerm;46714;50.118;14.462;2024-02-21T00:41:56;64.83;51.13;74.82;;
60872;Laerm;46714;50.118;14.462;2024-02-21T00:44:21;61.90;43.58;72.32;;
60872;Laerm;46714;50.118;14.462;2024-02-21T00:46:47;65.80;51.35;75.73;;
60872;Laerm;46714;50.118;14.462;2024-02-21T00:49:12;60.44;43.39;70.00;;
60872;Laerm;46714;50.118;14.462;2024-02-21T00:51:37;65.02;47.24;75.84;;
60872;Laerm;46714;50.118;14.462;2024-02-21T00:54:03;64.67;48.08;74.40;;
60872;Laerm;46714;50.118;14.462;2024-02-21T00:56:28;63.57;49.70;74.00;;
60872;Laerm;46714;50.118;14.462;2024-02-21T00:58:55;64.58;47.16;73.94;;
60872;Laerm;46714;50.118;14.462;2024-02-21T01:01:25;62.73;41.61;77.43;;
60872;Laerm;46714;50.118;14.462;2024-02-21T01:03:50;63.32;45.72;73.89;;
60872;Laerm;46714;50.118;14.462;2024-02-21T01:06:18;64.45;45.28;78.39;;
60872;Laerm;46714;50.118;14.462;2024-02-21T01:08:44;64.73;43.14;75.28;;
60872;Laerm;46714;50.118;14.462;2024-02-21T01:11:09;64.40;41.96;72.48;;
60872;Laerm;46714;50.118;14.462;2024-02-21T01:13:34;64.91;44.03;76.80;;
60872;Laerm;46714;50.118;14.462;2024-02-21T01:16:00;63.76;46.48;75.92;;
60872;Laerm;46714;50.118;14.462;2024-02-21T01:18:25;66.30;47.79;77.99;;
60872;Laerm;46714;50.118;14.462;2024-02-21T01:20:51;63.47;46.62;73.57;;
60872;Laerm;46714;50.118;14.462;2024-02-21T01:23:16;64.30;52.27;74.49;;
60872;Laerm;46714;50.118;14.462;2024-02-21T01:25:41;61.59;47.10;72.24;;
60872;Laerm;46714;50.118;14.462;2024-02-21T01:28:07;63.37;46.02;73.45;;
60872;Laerm;46714;50.118;14.462;2024-02-21T01:30:33;62.75;45.75;72.45;;
60872;Laerm;46714;50.118;14.462;2024-02-21T01:32:58;60.85;42.65;71.37;;
60872;Laerm;46714;50.118;14.462;2024-02-21T01:35:23;65.01;43.24;74.37;;
60872;Laerm;46714;50.118;14.462;2024-02-21T01:37:50;66.24;43.72;77.33;;
60872;Laerm;46714;50.118;14.462;2024-02-21T01:40:17;63.82;40.71;77.71;;
60872;Laerm;46714;50.118;14.462;2024-02-21T01:42:42;65.58;47.42;81.18;;
60872;Laerm;46714;50.118;14.462;2024-02-21T01:45:08;65.83;49.77;78.99;;
60872;Laerm;46714;50.118;14.462;2024-02-21T01:47:34;62.21;44.11;73.50;;
60872;Laerm;46714;50.118;14.462;2024-02-21T01:49:59;63.72;49.21;76.98;;
60872;Laerm;46714;50.118;14.462;2024-02-21T01:52:25;64.13;44.65;75.15;;
60872;Laerm;46714;50.118;14.462;2024-02-21T01:54:50;65.24;47.61;75.50;;
60872;Laerm;46714;50.118;14.462;2024-02-21T01:57:16;63.14;43.44;75.26;;
60872;Laerm;46714;50.118;14.462;2024-02-21T01:59:42;63.75;50.93;77.08;;
60872;Laerm;46714;50.118;14.462;2024-02-21T02:02:07;66.12;48.81;82.37;;
60872;Laerm;46714;50.118;14.462;2024-02-21T02:04:34;64.44;43.58;75.10;;
60872;Laerm;46714;50.118;14.462;2024-02-21T02:07:01;65.53;45.17;77.60;;
60872;Laerm;46714;50.118;14.462;2024-02-21T02:09:28;64.22;46.02;73.91;;
60872;Laerm;46714;50.118;14.462;2024-02-21T02:11:53;65.36;50.72;76.15;;
60872;Laerm;46714;50.118;14.462;2024-02-21T02:14:18;61.52;43.19;72.27;;
60872;Laerm;46714;50.118;14.462;2024-02-21T02:16:46;65.63;49.27;74.05;;
60872;Laerm;46714;50.118;14.462;2024-02-21T02:19:12;66.13;54.11;75.89;;
60872;Laerm;46714;50.118;14.462;2024-02-21T02:21:39;64.54;47.68;73.83;;
60872;Laerm;46714;50.118;14.462;2024-02-21T02:24:07;62.53;43.05;73.15;;
60872;Laerm;46714;50.118;14.462;2024-02-21T02:26:32;64.25;43.54;77.23;;
60872;Laerm;46714;50.118;14.462;2024-02-21T02:28:58;62.30;47.06;71.54;;
60872;Laerm;46714;50.118;14.462;2024-02-21T02:31:23;64.73;48.34;73.40;;
60872;Laerm;46714;50.118;14.462;2024-02-21T02:33:49;65.08;47.70;77.33;;
60872;Laerm;46714;50.118;14.462;2024-02-21T02:36:14;66.79;45.39;77.86;;
60872;Laerm;46714;50.118;14.462;2024-02-21T02:38:39;64.56;47.39;74.58;;
60872;Laerm;46714;50.118;14.462;2024-02-21T02:41:05;64.46;46.47;75.54;;
60872;Laerm;46714;50.118;14.462;2024-02-21T02:43:30;66.28;48.20;76.18;;
60872;Laerm;46714;50.118;14.462;2024-02-21T02:45:56;66.13;49.69;75.26;;
60872;Laerm;46714;50.118;14.462;2024-02-21T02:48:22;65.85;53.50;74.01;;
60872;Laerm;46714;50.118;14.462;2024-02-21T02:50:47;66.76;50.53;77.19;;
60872;Laerm;46714;50.118;14.462;2024-02-21T02:53:12;65.46;42.76;74.01;;
60872;Laerm;46714;50.118;14.462;2024-02-21T02:55:38;64.11;45.83;72.57;;
60872;Laerm;46714;50.118;14.462;2024-02-21T02:58:03;60.86;44.07;72.89;;
60872;Laerm;46714;50.118;14.462;2024-02-21T03:00:28;63.93;44.83;77.50;;
60872;Laerm;46714;50.118;14.462;2024-02-21T03:02:54;65.37;47.60;77.48;;
60872;Laerm;46714;50.118;14.462;2024-02-21T03:05:21;66.09;45.01;76.15;;
60872;Laerm;46714;50.118;14.462;2024-02-21T03:07:47;65.00;48.18;74.15;;
60872;Laerm;46714;50.118;14.462;2024-02-21T03:10:13;65.41;48.40;76.86;;
60872;Laerm;46714;50.118;14.462;2024-02-21T03:12:39;64.21;47.38;74.69;;
60872;Laerm;46714;50.118;14.462;2024-02-21T03:15:05;63.15;45.51;73.28;;
60872;Laerm;46714;50.118;14.462;2024-02-21T03:17:31;62.76;45.94;74.73;;
60872;Laerm;46714;50.118;14.462;2024-02-21T03:19:57;66.87;47.12;78.04;;
60872;Laerm;46714;50.118;14.462;2024-02-21T03:22:24;67.49;55.17;75.28;;
60872;Laerm;46714;50.118;14.462;2024-02-21T03:24:49;64.80;50.52;74.76;;
60872;Laerm;46714;50.118;14.462;2024-02-21T03:27:14;63.67;45.23;72.22;;
60872;Laerm;46714;50.118;14.462;2024-02-21T03:29:40;65.79;51.97;72.09;;
60872;Laerm;46714;50.118;14.462;2024-02-21T03:32:05;67.91;53.49;78.01;;
60872;Laerm;46714;50.118;14.462;2024-02-21T03:34:30;66.48;45.66;78.10;;
60872;Laerm;46714;50.118;14.462;2024-02-21T03:36:56;67.87;56.01;75.96;;
60872;Laerm;46714;50.118;14.462;2024-02-21T03:39:21;67.14;58.95;76.18;;
60872;Laerm;46714;50.118;14.462;2024-02-21T03:41:47;67.26;49.83;74.94;;
60872;Laerm;46714;50.118;14.462;2024-02-21T03:44:12;66.08;46.07;77.62;;
60872;Laerm;46714;50.118;14.462;2024-02-21T03:46:38;68.39;54.46;77.68;;
60872;Laerm;46714;50.118;14.462;2024-02-21T03:49:03;66.28;52.58;77.83;;
60872;Laerm;46714;50.118;14.462;2024-02-21T03:51:28;67.61;51.47;80.79;;
60872;Laerm;46714;50.118;14.462;2024-02-21T03:53:54;67.88;54.08;80.78;;
60872;Laerm;46714;50.118;14.462;2024-02-21T03:56:19;69.25;58.12;78.18;;
60872;Laerm;46714;50.118;14.462;2024-02-21T03:58:44;67.03;53.46;74.41;;
60872;Laerm;46714;50.118;14.462;2024-02-21T04:01:10;67.59;56.43;74.11;;
60872;Laerm;46714;50.118;14.462;2024-02-21T04:03:35;67.73;60.66;73.78;;
60872;Laerm;46714;50.118;14.462;2024-02-21T04:06:01;68.41;58.25;75.18;;
60872;Laerm;46714;50.118;14.462;2024-02-21T04:08:26;69.50;60.48;79.82;;
60872;Laerm;46714;50.118;14.462;2024-02-21T04:10:51;69.69;59.05;77.30;;
60872;Laerm;46714;50.118;14.462;2024-02-21T04:13:17;68.84;57.43;81.15;;
60872;Laerm;46714;50.118;14.462;2024-02-21T04:15:42;68.33;56.14;76.21;;
60872;Laerm;46714;50.118;14.462;2024-02-21T04:18:07;70.24;60.70;79.83;;
60872;Laerm;46714;50.118;14.462;2024-02-21T04:20:34;69.13;58.88;78.14;;
60872;Laerm;46714;50.118;14.462;2024-02-21T04:23:00;70.53;61.74;77.67;;
60872;Laerm;46714;50.118;14.462;2024-02-21T04:25:25;69.99;59.42;76.04;;
60872;Laerm;46714;50.118;14.462;2024-02-21T04:27:51;71.49;61.95;82.25;;
60872;Laerm;46714;50.118;14.462;2024-02-21T04:30:17;69.99;58.46;77.16;;
60872;Laerm;46714;50.118;14.462;2024-02-21T04:32:42;70.94;64.66;76.47;;
60872;Laerm;46714;50.118;14.462;2024-02-21T04:35:08;70.48;59.01;80.34;;
60872;Laerm;46714;50.118;14.462;2024-02-21T04:37:33;70.55;63.27;77.04;;
60872;Laerm;46714;50.118;14.462;2024-02-21T04:39:59;71.11;65.11;76.36;;
60872;Laerm;46714;50.118;14.462;2024-02-21T04:42:25;71.86;64.31;77.90;;
60872;Laerm;46714;50.118;14.462;2024-02-21T04:44:50;72.21;66.18;77.43;;
60872;Laerm;46714;50.118;14.462;2024-02-21T04:47:15;71.66;64.03;79.43;;
60872;Laerm;46714;50.118;14.462;2024-02-21T04:49:41;70.78;65.01;77.73;;
60872;Laerm;46714;50.118;14.462;2024-02-21T04:52:07;71.78;65.91;76.16;;
60872;Laerm;46714;50.118;14.462;2024-02-21T04:54:32;72.10;66.67;77.08;;
60872;Laerm;46714;50.118;14.462;2024-02-21T04:56:57;73.27;65.57;81.72;;
60872;Laerm;46714;50.118;14.462;2024-02-21T04:59:23;73.04;67.06;79.07;;
60872;Laerm;46714;50.118;14.462;2024-02-21T05:01:48;72.09;64.65;78.77;;
60872;Laerm;46714;50.118;14.462;2024-02-21T05:04:14;72.60;67.08;76.78;;
60872;Laerm;46714;50.118;14.462;2024-02-21T05:06:41;73.09;67.45;79.92;;
60872;Laerm;46714;50.118;14.462;2024-02-21T05:09:08;72.91;67.17;78.18;;
60872;Laerm;46714;50.118;14.462;2024-02-21T05:11:34;73.19;67.03;78.68;;
60872;Laerm;46714;50.118;14.462;2024-02-21T05:13:59;73.16;67.46;80.89;;
60872;Laerm;46714;50.118;14.462;2024-02-21T05:16:25;73.52;68.75;79.73;;
60872;Laerm;46714;50.118;14.462;2024-02-21T05:18:50;73.41;67.91;79.94;;
60872;Laerm;46714;50.118;14.462;2024-02-21T05:21:16;79.45;68.26;101.60;;
60872;Laerm;46714;50.118;14.462;2024-02-21T05:23:41;76.86;67.53;99.74;;
60872;Laerm;46714;50.118;14.462;2024-02-21T05:26:07;73.94;68.00;79.46;;
60872;Laerm;46714;50.118;14.462;2024-02-21T05:28:32;73.67;67.57;81.14;;
60872;Laerm;46714;50.118;14.462;2024-02-21T05:30:58;78.95;65.30;97.27;;
60872;Laerm;46714;50.118;14.462;2024-02-21T05:33:24;72.53;65.19;79.89;;
60872;Laerm;46714;50.118;14.462;2024-02-21T05:35:49;72.63;66.31;78.78;;
60872;Laerm;46714;50.118;14.462;2024-02-21T05:38:15;77.02;67.89;94.11;;
60872;Laerm;46714;50.118;14.462;2024-02-21T05:40:40;73.89;69.54;78.58;;
60872;Laerm;46714;50.118;14.462;2024-02-21T05:43:07;73.13;66.06;78.07;;
60872;Laerm;46714;50.118;14.462;2024-02-21T05:45:33;73.25;65.73;78.34;;
60872;Laerm;46714;50.118;14.462;2024-02-21T05:47:58;73.92;65.02;78.79;;
60872;Laerm;46714;50.118;14.462;2024-02-21T05:50:23;73.27;65.29;79.31;;
60872;Laerm;46714;50.118;14.462;2024-02-21T05:52:53;73.55;67.35;81.09;;
60872;Laerm;46714;50.118;14.462;2024-02-21T05:55:19;74.34;68.36;81.57;;
60872;Laerm;46714;50.118;14.462;2024-02-21T05:57:44;72.35;63.36;80.13;;
60872;Laerm;46714;50.118;14.462;2024-02-21T06:00:10;72.48;62.53;77.78;;
60872;Laerm;46714;50.118;14.462;2024-02-21T06:02:35;74.00;68.07;82.31;;
60872;Laerm;46714;50.118;14.462;2024-02-21T06:05:01;73.70;65.96;78.59;;
60872;Laerm;46714;50.118;14.462;2024-02-21T06:07:26;73.32;67.99;77.43;;
60872;Laerm;46714;50.118;14.462;2024-02-21T06:09:51;73.66;66.25;80.97;;
60872;Laerm;46714;50.118;14.462;2024-02-21T06:12:17;73.39;66.00;80.55;;
60872;Laerm;46714;50.118;14.462;2024-02-21T06:14:42;73.47;67.27;79.50;;
60872;Laerm;46714;50.118;14.462;2024-02-21T06:17:07;74.18;66.04;82.20;;
60872;Laerm;46714;50.118;14.462;2024-02-21T06:19:33;73.67;68.14;78.46;;
60872;Laerm;46714;50.118;14.462;2024-02-21T06:21:58;73.60;66.40;78.30;;
60872;Laerm;46714;50.118;14.462;2024-02-21T06:24:24;73.73;68.52;78.95;;
60872;Laerm;46714;50.118;14.462;2024-02-21T06:26:49;74.18;65.92;81.41;;
60872;Laerm;46714;50.118;14.462;2024-02-21T06:29:14;73.80;66.23;77.53;;
60872;Laerm;46714;50.118;14.462;2024-02-21T06:31:40;79.14;70.73;102.19;;
60872;Laerm;46714;50.118;14.462;2024-02-21T06:34:06;74.21;67.97;81.60;;
60872;Laerm;46714;50.118;14.462;2024-02-21T06:36:31;80.66;65.09;97.03;;
60872;Laerm;46714;50.118;14.462;2024-02-21T06:38:57;73.77;64.63;81.45;;
60872;Laerm;46714;50.118;14.462;2024-02-21T06:41:22;82.00;67.93;101.98;;
60872;Laerm;46714;50.118;14.462;2024-02-21T06:43:48;73.23;63.31;78.61;;
60872;Laerm;46714;50.118;14.462;2024-02-21T06:46:27;73.76;67.48;78.10;;
60872;Laerm;46714;50.118;14.462;2024-02-21T06:48:53;73.71;67.89;79.01;;
60872;Laerm;46714;50.118;14.462;2024-02-21T06:51:19;72.86;66.69;77.18;;
60872;Laerm;46714;50.118;14.462;2024-02-21T06:53:44;73.56;66.00;78.57;;
60872;Laerm;46714;50.118;14.462;2024-02-21T06:56:10;73.57;65.46;77.59;;
60872;Laerm;46714;50.118;14.462;2024-02-21T06:58:36;75.83;70.54;90.65;;
60872;Laerm;46714;50.118;14.462;2024-02-21T07:01:01;73.84;66.91;90.54;;
60872;Laerm;46714;50.118;14.462;2024-02-21T07:03:27;77.34;64.88;93.20;;
60872;Laerm;46714;50.118;14.462;2024-02-21T07:05:52;72.83;63.72;78.62;;
60872;Laerm;46714;50.118;14.462;2024-02-21T07:08:17;73.53;68.16;79.22;;
60872;Laerm;46714;50.118;14.462;2024-02-21T07:10:43;73.83;66.37;81.85;;
60872;Laerm;46714;50.118;14.462;2024-02-21T07:13:08;75.84;63.02;95.75;;
60872;Laerm;46714;50.118;14.462;2024-02-21T07:15:33;73.66;65.72;81.20;;
60872;Laerm;46714;50.118;14.462;2024-02-21T07:17:59;73.45;66.72;81.74;;
60872;Laerm;46714;50.118;14.462;2024-02-21T07:20:24;73.68;68.43;80.07;;
60872;Laerm;46714;50.118;14.462;2024-02-21T07:22:50;74.07;70.46;79.70;;
60872;Laerm;46714;50.118;14.462;2024-02-21T07:25:15;74.12;67.74;83.68;;
60872;Laerm;46714;50.118;14.462;2024-02-21T07:27:41;79.04;63.94;101.88;;
60872;Laerm;46714;50.118;14.462;2024-02-21T07:30:07;73.76;68.34;79.95;;
60872;Laerm;46714;50.118;14.462;2024-02-21T07:32:32;73.28;65.09;81.53;;
60872;Laerm;46714;50.118;14.462;2024-02-21T07:34:58;73.85;64.59;86.57;;
60872;Laerm;46714;50.118;14.462;2024-02-21T07:37:23;80.44;66.09;101.38;;
60872;Laerm;46714;50.118;14.462;2024-02-21T07:39:49;74.34;67.29;82.71;;
60872;Laerm;46714;50.118;14.462;2024-02-21T07:42:14;73.98;69.84;78.50;;
60872;Laerm;46714;50.118;14.462;2024-02-21T07:44:41;72.57;64.85;77.79;;
60872;Laerm;46714;50.118;14.462;2024-02-21T07:47:06;73.44;66.09;78.63;;
60872;Laerm;46714;50.118;14.462;2024-02-21T07:49:32;73.03;64.22;78.59;;
60872;Laerm;46714;50.118;14.462;2024-02-21T07:52:00;73.33;65.20;80.17;;
60872;Laerm;46714;50.118;14.462;2024-02-21T07:54:25;74.14;66.31;81.17;;
60872;Laerm;46714;50.118;14.462;2024-02-21T07:56:51;73.16;65.72;85.30;;
60872;Laerm;46714;50.118;14.462;2024-02-21T07:59:16;73.76;68.34;79.12;;
60872;Laerm;46714;50.118;14.462;2024-02-21T08:01:42;74.12;61.49;86.41;;
60872;Laerm;46714;50.118;14.462;2024-02-21T08:04:08;72.14;61.92;78.69;;
60872;Laerm;46714;50.118;14.462;2024-02-21T08:06:33;73.59;65.15;79.01;;
60872;Laerm;46714;50.118;14.462;2024-02-21T08:08:59;73.65;64.08;80.75;;
60872;Laerm;46714;50.118;14.462;2024-02-21T08:11:25;73.91;67.73;81.08;;
60872;Laerm;46714;50.118;14.462;2024-02-21T08:13:51;72.54;64.81;81.02;;
60872;Laerm;46714;50.118;14.462;2024-02-21T08:16:16;74.17;69.25;80.58;;
60872;Laerm;46714;50.118;14.462;2024-02-21T08:18:44;73.85;66.11;81.17;;
60872;Laerm;46714;50.118;14.462;2024-02-21T08:21:09;74.06;69.58;81.19;;
60872;Laerm;46714;50.118;14.462;2024-02-21T08:23:34;74.95;66.30;87.81;;
60872;Laerm;46714;50.118;14.462;2024-02-21T08:26:00;78.67;66.60;99.14;;
60872;Laerm;46714;50.118;14.462;2024-02-21T08:28:27;73.78;67.15;80.41;;
60872;Laerm;46714;50.118;14.462;2024-02-21T08:30:53;73.16;65.91;77.46;;
60872;Laerm;46714;50.118;14.462;2024-02-21T08:33:18;73.60;67.13;80.59;;
60872;Laerm;46714;50.118;14.462;2024-02-21T08:35:44;73.12;63.11;81.17;;
60872;Laerm;46714;50.118;14.462;2024-02-21T08:38:09;73.60;66.86;79.65;;
60872;Laerm;46714;50.118;14.462;2024-02-21T08:40:35;74.01;68.81;78.80;;
60872;Laerm;46714;50.118;14.462;2024-02-21T08:43:02;73.35;67.46;77.17;;
60872;Laerm;46714;50.118;14.462;2024-02-21T08:45:27;75.22;66.72;94.21;;
60872;Laerm;46714;50.118;14.462;2024-02-21T08:47:52;73.80;66.75;83.12;;
60872;Laerm;46714;50.118;14.462;2024-02-21T08:50:18;72.60;65.96;77.43;;
60872;Laerm;46714;50.118;14.462;2024-02-21T08:52:43;73.57;66.15;82.65;;
60872;Laerm;46714;50.118;14.462;2024-02-21T08:55:08;85.67;68.46;109.97;;
60872;Laerm;46714;50.118;14.462;2024-02-21T08:57:34;74.00;68.58;79.86;;
60872;Laerm;46714;50.118;14.462;2024-02-21T09:00:04;73.67;66.62;79.84;;
60872;Laerm;46714;50.118;14.462;2024-02-21T09:02:35;74.57;68.65;84.39;;
60872;Laerm;46714;50.118;14.462;2024-02-21T09:05:00;74.25;68.69;80.27;;
60872;Laerm;46714;50.118;14.462;2024-02-21T09:07:25;73.99;67.48;80.74;;
60872;Laerm;46714;50.118;14.462;2024-02-21T09:09:51;78.85;69.14;97.95;;
60872;Laerm;46714;50.118;14.462;2024-02-21T09:12:16;73.55;67.05;79.36;;
60872;Laerm;46714;50.118;14.462;2024-02-21T09:14:41;73.61;66.58;79.02;;
60872;Laerm;46714;50.118;14.462;2024-02-21T09:17:07;74.36;67.31;82.00;;
60872;Laerm;46714;50.118;14.462;2024-02-21T09:19:34;73.63;68.46;79.15;;
60872;Laerm;46714;50.118;14.462;2024-02-21T09:22:00;74.49;69.10;78.78;;
60872;Laerm;46714;50.118;14.462;2024-02-21T09:24:25;74.47;69.12;83.30;;
60872;Laerm;46714;50.118;14.462;2024-02-21T09:26:50;75.28;70.13;84.06;;
60872;Laerm;46714;50.118;14.462;2024-02-21T09:29:16;75.56;69.95;82.14;;
60872;Laerm;46714;50.118;14.462;2024-02-21T09:31:41;74.36;70.04;79.51;;
60872;Laerm;46714;50.118;14.462;2024-02-21T09:34:07;80.14;67.58;101.85;;
60872;Laerm;46714;50.118;14.462;2024-02-21T09:36:32;74.75;68.83;82.01;;
60872;Laerm;46714;50.118;14.462;2024-02-21T09:38:58;74.46;67.86;79.95;;
60872;Laerm;46714;50.118;14.462;2024-02-21T09:41:27;73.97;66.68;80.28;;
60872;Laerm;46714;50.118;14.462;2024-02-21T09:43:56;80.66;69.00;101.72;;
60872;Laerm;46714;50.118;14.462;2024-02-21T09:46:29;74.50;69.01;79.92;;
60872;Laerm;46714;50.118;14.462;2024-02-21T09:51:39;78.31;69.03;100.81;;
60872;Laerm;46714;50.118;14.462;2024-02-21T09:54:07;74.45;68.18;80.78;;
60872;Laerm;46714;50.118;14.462;2024-02-21T09:56:32;74.35;68.09;83.89;;
60872;Laerm;46714;50.118;14.462;2024-02-21T09:58:58;74.52;66.73;80.44;;
60872;Laerm;46714;50.118;14.462;2024-02-21T10:01:23;74.87;69.79;82.39;;
60872;Laerm;46714;50.118;14.462;2024-02-21T10:03:49;74.52;67.10;83.62;;
60872;Laerm;46714;50.118;14.462;2024-02-21T10:06:15;73.83;67.71;79.72;;
60872;Laerm;46714;50.118;14.462;2024-02-21T10:08:40;74.26;68.65;80.57;;
60872;Laerm;46714;50.118;14.462;2024-02-21T10:11:05;74.81;69.46;85.14;;
60872;Laerm;46714;50.118;14.462;2024-02-21T10:13:31;74.35;69.47;77.85;;
60872;Laerm;46714;50.118;14.462;2024-02-21T10:16:07;74.49;69.79;80.69;;
60872;Laerm;46714;50.118;14.462;2024-02-21T10:18:35;79.38;69.06;100.42;;
60872;Laerm;46714;50.118;14.462;2024-02-21T10:21:05;74.36;67.28;79.29;;
60872;Laerm;46714;50.118;14.462;2024-02-21T10:23:42;74.20;67.59;80.35;;
60872;Laerm;46714;50.118;14.462;2024-02-21T10:26:08;74.88;70.62;80.06;;
60872;Laerm;46714;50.118;14.462;2024-02-21T10:28:33;74.16;67.72;82.58;;
60872;Laerm;46714;50.118;14.462;2024-02-21T10:30:59;74.22;68.68;78.25;;
60872;Laerm;46714;50.118;14.462;2024-02-21T10:33:24;73.74;67.65;79.65;;
60872;Laerm;46714;50.118;14.462;2024-02-21T10:35:50;74.18;66.92;79.21;;
60872;Laerm;46714;50.118;14.462;2024-02-21T10:38:16;74.73;70.95;79.02;;
60872;Laerm;46714;50.118;14.462;2024-02-21T10:40:42;75.62;70.44;89.14;;
60872;Laerm;46714;50.118;14.462;2024-02-21T10:43:12;74.62;69.85;82.67;;
60872;Laerm;46714;50.118;14.462;2024-02-21T10:45:38;74.82;68.98;82.32;;
60872;Laerm;46714;50.118;14.462;2024-02-21T10:48:13;75.12;70.59;84.95;;
60872;Laerm;46714;50.118;14.462;2024-02-21T10:51:08;73.95;67.40;79.34;;
60872;Laerm;46714;50.118;14.462;2024-02-21T10:56:32;74.26;67.06;79.43;;
60872;Laerm;46714;50.118;14.462;2024-02-21T10:59:03;74.85;69.66;85.25;;
60872;Laerm;46714;50.118;14.462;2024-02-21T11:01:30;78.82;69.83;97.95;;
60872;Laerm;46714;50.118;14.462;2024-02-21T11:03:58;73.71;66.79;80.70;;
60872;Laerm;46714;50.118;14.462;2024-02-21T11:06:26;75.03;69.88;80.39;;
60872;Laerm;46714;50.118;14.462;2024-02-21T11:09:07;73.84;66.63;78.51;;
60872;Laerm;46714;50.118;14.462;2024-02-21T11:11:41;74.43;69.31;81.06;;
60872;Laerm;46714;50.118;14.462;2024-02-21T11:14:08;77.41;69.82;96.85;;
60872;Laerm;46714;50.118;14.462;2024-02-21T11:16:39;74.28;65.56;80.32;;
60872;Laerm;46714;50.118;14.462;2024-02-21T11:19:18;74.47;69.92;80.77;;
60872;Laerm;46714;50.118;14.462;2024-02-21T11:21:44;73.68;66.34;77.32;;
60872;Laerm;46714;50.118;14.462;2024-02-21T11:24:09;73.88;67.46;79.92;;
60872;Laerm;46714;50.118;14.462;2024-02-21T11:26:37;79.83;68.33;100.33;;
60872;Laerm;46714;50.118;14.462;2024-02-21T11:29:03;74.47;67.59;83.64;;
60872;Laerm;46714;50.118;14.462;2024-02-21T11:31:39;74.46;69.93;81.11;;
60872;Laerm;46714;50.118;14.462;2024-02-21T11:34:09;74.75;70.43;79.82;;
60872;Laerm;46714;50.118;14.462;2024-02-21T11:36:34;75.83;70.07;93.34;;
60872;Laerm;46714;50.118;14.462;2024-02-21T11:39:04;75.43;71.09;82.65;;
60872;Laerm;46714;50.118;14.462;2024-02-21T11:41:29;75.95;70.37;93.58;;
60872;Laerm;46714;50.118;14.462;2024-02-21T11:43:55;74.06;68.09;77.76;;
60872;Laerm;46714;50.118;14.462;2024-02-21T11:46:21;74.79;69.00;79.52;;
60872;Laerm;46714;50.118;14.462;2024-02-21T11:48:46;74.29;67.47;80.88;;
60872;Laerm;46714;50.118;14.462;2024-02-21T11:51:24;73.98;69.71;79.29;;
60872;Laerm;46714;50.118;14.462;2024-02-21T11:53:52;76.02;69.11;93.00;;
60872;Laerm;46714;50.118;14.462;2024-02-21T11:56:18;75.76;69.98;83.75;;
60872;Laerm;46714;50.118;14.462;2024-02-21T11:58:46;74.82;70.83;81.77;;
60872;Laerm;46714;50.118;14.462;2024-02-21T12:01:12;74.80;70.68;81.68;;
60872;Laerm;46714;50.118;14.462;2024-02-21T12:03:38;74.46;69.91;79.10;;
60872;Laerm;46714;50.118;14.462;2024-02-21T12:06:06;74.51;68.42;78.56;;
60872;Laerm;46714;50.118;14.462;2024-02-21T12:08:42;74.27;67.70;81.63;;
60872;Laerm;46714;50.118;14.462;2024-02-21T12:11:21;77.45;69.38;95.61;;
60872;Laerm;46714;50.118;14.462;2024-02-21T12:13:58;74.14;68.28;78.13;;
60872;Laerm;46714;50.118;14.462;2024-02-21T12:16:25;76.33;69.48;91.32;;
60872;Laerm;46714;50.118;14.462;2024-02-21T12:18:53;79.79;69.09;101.95;;
60872;Laerm;46714;50.118;14.462;2024-02-21T12:21:18;74.83;69.35;81.16;;
60872;Laerm;46714;50.118;14.462;2024-02-21T12:23:44;74.04;68.42;78.60;;
60872;Laerm;46714;50.118;14.462;2024-02-21T12:26:12;74.29;67.70;83.04;;
60872;Laerm;46714;50.118;14.462;2024-02-21T12:28:37;77.82;69.47;100.05;;
60872;Laerm;46714;50.118;14.462;2024-02-21T12:31:03;73.85;68.97;79.81;;
60872;Laerm;46714;50.118;14.462;2024-02-21T12:33:29;77.20;70.88;92.89;;
60872;Laerm;46714;50.118;14.462;2024-02-21T12:35:55;74.28;70.22;81.51;;
60872;Laerm;46714;50.118;14.462;2024-02-21T12:38:20;74.30;70.23;79.65;;
60872;Laerm;46714;50.118;14.462;2024-02-21T12:40:46;74.15;69.84;79.66;;
60872;Laerm;46714;50.118;14.462;2024-02-21T12:43:11;74.80;69.50;78.79;;
60872;Laerm;46714;50.118;14.462;2024-02-21T12:45:36;74.30;69.06;78.53;;
60872;Laerm;46714;50.118;14.462;2024-02-21T12:48:02;74.36;68.11;80.28;;
60872;Laerm;46714;50.118;14.462;2024-02-21T12:50:29;78.13;69.59;97.49;;
60872;Laerm;46714;50.118;14.462;2024-02-21T12:52:56;74.77;70.35;80.50;;
60872;Laerm;46714;50.118;14.462;2024-02-21T12:55:21;74.80;69.89;82.33;;
60872;Laerm;46714;50.118;14.462;2024-02-21T12:57:47;73.83;67.96;81.44;;
60872;Laerm;46714;50.118;14.462;2024-02-21T13:00:12;74.07;69.13;81.02;;
60872;Laerm;46714;50.118;14.462;2024-02-21T13:02:39;73.59;68.30;80.43;;
60872;Laerm;46714;50.118;14.462;2024-02-21T13:05:04;74.40;69.28;83.99;;
60872;Laerm;46714;50.118;14.462;2024-02-21T13:07:30;74.60;69.63;78.46;;
60872;Laerm;46714;50.118;14.462;2024-02-21T13:09:57;74.28;69.30;78.37;;
60872;Laerm;46714;50.118;14.462;2024-02-21T13:12:22;74.16;66.96;79.37;;
60872;Laerm;46714;50.118;14.462;2024-02-21T13:14:48;74.28;67.33;79.64;;
60872;Laerm;46714;50.118;14.462;2024-02-21T13:17:13;74.30;67.45;79.23;;
60872;Laerm;46714;50.118;14.462;2024-02-21T13:19:40;73.89;67.25;80.75;;
60872;Laerm;46714;50.118;14.462;2024-02-21T13:22:05;74.56;69.92;81.83;;
60872;Laerm;46714;50.118;14.462;2024-02-21T13:24:32;75.04;70.94;84.58;;
60872;Laerm;46714;50.118;14.462;2024-02-21T13:26:57;76.81;68.94;95.92;;
60872;Laerm;46714;50.118;14.462;2024-02-21T13:29:22;73.44;64.93;78.91;;
60872;Laerm;46714;50.118;14.462;2024-02-21T13:31:48;77.64;68.04;94.77;;